createdAt,value
2018-03-01T00:00:14.125Z,0
2018-03-01T00:01:14.685Z,0
2018-03-01T00:02:15.249Z,0
2018-03-01T00:03:15.814Z,0
2018-03-01T00:04:16.375Z,0
2018-03-01T00:05:16.950Z,0
2018-03-01T00:06:17.504Z,0
2018-03-01T00:07:18.062Z,0
2018-03-01T00:08:18.626Z,0
2018-03-01T00:09:19.187Z,0
2018-03-01T00:10:19.754Z,0
2018-03-01T00:11:20.312Z,0
2018-03-01T00:12:20.873Z,0
2018-03-01T00:13:21.437Z,0
2018-03-01T00:14:22.000Z,0
2018-03-01T00:15:22.576Z,0
2018-03-01T00:16:23.137Z,0
2018-03-01T00:17:23.739Z,0
2018-03-01T00:18:24.262Z,0
2018-03-01T00:19:24.826Z,0
2018-03-01T00:20:25.389Z,0
2018-03-01T00:21:25.950Z,0
2018-03-01T00:22:26.517Z,0
2018-03-01T00:23:27.077Z,0
2018-03-01T00:24:27.640Z,0
2018-03-01T00:25:28.202Z,0
2018-03-01T00:26:28.765Z,0
2018-03-01T00:27:29.330Z,0
2018-03-01T00:28:29.892Z,0
2018-03-01T00:29:30.471Z,0
2018-03-01T00:30:31.048Z,0
2018-03-01T00:31:31.627Z,0
2018-03-01T00:32:32.186Z,0
2018-03-01T00:33:32.748Z,0
2018-03-01T00:34:33.310Z,0
2018-03-01T00:35:33.879Z,0
2018-03-01T00:36:34.438Z,0
2018-03-01T00:37:35.016Z,0
2018-03-01T00:38:35.576Z,0
2018-03-01T00:39:36.141Z,0
2018-03-01T00:40:36.704Z,0
2018-03-01T00:41:37.268Z,0
2018-03-01T00:42:37.826Z,0
2018-03-01T00:43:38.390Z,0
2018-03-01T00:44:38.955Z,0
2018-03-01T00:45:39.517Z,0
2018-03-01T00:46:40.079Z,0
2018-03-01T00:47:40.642Z,0
2018-03-01T00:48:41.205Z,0
2018-03-01T00:49:41.767Z,0
2018-03-01T00:50:42.328Z,0
2018-03-01T00:51:42.891Z,0
2018-03-01T00:52:43.454Z,0
2018-03-01T00:53:44.031Z,0
2018-03-01T00:54:44.594Z,0
2018-03-01T00:55:45.154Z,0
2018-03-01T00:56:45.718Z,0
2018-03-01T00:57:46.282Z,0
2018-03-01T00:58:46.845Z,0
2018-03-01T00:59:47.410Z,0
2018-03-01T01:00:47.967Z,0
2018-03-01T01:01:48.534Z,0
2018-03-01T01:02:49.111Z,0
2018-03-01T01:03:49.672Z,0
2018-03-01T01:04:50.236Z,0
2018-03-01T01:05:50.796Z,0
2018-03-01T01:06:51.361Z,0
2018-03-01T01:07:51.935Z,0
2018-03-01T01:08:52.512Z,0
2018-03-01T01:09:53.076Z,0
2018-03-01T01:10:53.640Z,0
2018-03-01T01:11:54.202Z,0
2018-03-01T01:12:54.780Z,0
2018-03-01T01:13:55.341Z,0
2018-03-01T01:14:55.903Z,0
2018-03-01T01:15:56.468Z,0
2018-03-01T01:16:57.031Z,0
2018-03-01T01:17:57.592Z,0
2018-03-01T01:18:58.155Z,0
2018-03-01T01:19:58.718Z,0
2018-03-01T01:20:59.295Z,0
2018-03-01T01:21:59.870Z,0
2018-03-01T01:23:00.435Z,0
2018-03-01T01:24:00.997Z,0
2018-03-01T01:25:01.560Z,0
2018-03-01T01:26:02.123Z,0
2018-03-01T01:27:02.687Z,0
2018-03-01T01:28:03.251Z,0
2018-03-01T01:29:03.812Z,0
2018-03-01T01:30:04.376Z,0
2018-03-01T01:31:04.939Z,0
2018-03-01T01:32:05.503Z,0
2018-03-01T01:33:06.063Z,0
2018-03-01T01:34:06.629Z,0
2018-03-01T01:35:07.209Z,0
2018-03-01T01:36:07.770Z,0
2018-03-01T01:37:08.333Z,0
2018-03-01T01:38:08.894Z,0
2018-03-01T01:39:09.457Z,0
2018-03-01T01:40:10.022Z,0
2018-03-01T01:41:10.582Z,0
2018-03-01T01:42:11.144Z,0
2018-03-01T01:43:11.708Z,0
2018-03-01T01:44:12.270Z,0
2018-03-01T01:45:12.834Z,0
2018-03-01T01:46:13.395Z,0
2018-03-01T01:47:13.959Z,0
2018-03-01T01:48:14.521Z,0
2018-03-01T01:49:15.082Z,0
2018-03-01T01:50:15.644Z,0
2018-03-01T01:51:16.208Z,0
2018-03-01T01:52:16.771Z,0
2018-03-01T01:53:17.339Z,0
2018-03-01T01:54:17.913Z,0
2018-03-01T01:55:18.478Z,0
2018-03-01T01:56:19.037Z,0
2018-03-01T01:57:19.599Z,0
2018-03-01T01:58:20.160Z,0
2018-03-01T01:59:20.723Z,0
2018-03-01T02:00:21.302Z,0
2018-03-01T02:01:21.880Z,0
2018-03-01T02:02:22.442Z,0
2018-03-01T02:03:23.005Z,0
2018-03-01T02:04:23.569Z,0
2018-03-01T02:05:24.131Z,0
2018-03-01T02:06:24.693Z,0
2018-03-01T02:07:25.253Z,0
2018-03-01T02:08:25.816Z,0
2018-03-01T02:09:26.386Z,0
2018-03-01T02:10:26.940Z,0
2018-03-01T02:11:27.523Z,0
2018-03-01T02:12:28.079Z,0
2018-03-01T02:13:28.643Z,0
2018-03-01T02:14:29.205Z,0
2018-03-01T02:15:29.770Z,0
2018-03-01T02:16:30.331Z,0
2018-03-01T02:17:30.892Z,0
2018-03-01T02:18:31.455Z,0
2018-03-01T02:19:32.017Z,0
2018-03-01T02:20:32.580Z,0
2018-03-01T02:21:33.142Z,0
2018-03-01T02:22:33.706Z,0
2018-03-01T02:23:34.270Z,0
2018-03-01T02:24:34.834Z,0
2018-03-01T02:25:35.396Z,0
2018-03-01T02:26:35.959Z,0
2018-03-01T02:27:36.523Z,0
2018-03-01T02:28:37.084Z,0
2018-03-01T02:29:37.647Z,0
2018-03-01T02:30:38.223Z,0
2018-03-01T02:31:38.786Z,0
2018-03-01T02:32:39.352Z,0
2018-03-01T02:33:39.911Z,0
2018-03-01T02:34:40.486Z,0
2018-03-01T02:35:41.054Z,0
2018-03-01T02:36:41.616Z,0
2018-03-01T02:37:42.174Z,0
2018-03-01T02:38:42.739Z,0
2018-03-01T02:39:43.303Z,0
2018-03-01T02:40:43.863Z,0
2018-03-01T02:41:44.442Z,0
2018-03-01T02:42:45.028Z,0
2018-03-01T02:43:45.564Z,0
2018-03-01T02:44:46.131Z,0
2018-03-01T02:45:46.688Z,0
2018-03-01T02:46:47.252Z,0
2018-03-01T02:47:47.826Z,0
2018-03-01T02:48:48.390Z,0
2018-03-01T02:49:48.951Z,0
2018-03-01T02:50:49.513Z,0
2018-03-01T02:51:50.076Z,0
2018-03-01T02:52:50.640Z,0
2018-03-01T02:53:51.195Z,0
2018-03-01T02:54:51.758Z,0
2018-03-01T02:55:52.320Z,0
2018-03-01T02:56:52.882Z,0
2018-03-01T02:57:53.444Z,0
2018-03-01T02:58:54.008Z,0
2018-03-01T02:59:54.568Z,0
2018-03-01T03:00:55.131Z,0
2018-03-01T03:01:55.691Z,0
2018-03-01T03:02:56.252Z,0
2018-03-01T03:03:56.813Z,0
2018-03-01T03:04:57.376Z,0
2018-03-01T03:05:57.939Z,0
2018-03-01T03:06:58.500Z,0
2018-03-01T03:07:59.062Z,0
2018-03-01T03:08:59.624Z,0
2018-03-01T03:10:00.185Z,0
2018-03-01T03:11:00.748Z,0
2018-03-01T03:12:01.317Z,0
2018-03-01T03:13:01.871Z,0
2018-03-01T03:14:02.434Z,0
2018-03-01T03:15:02.996Z,0
2018-03-01T03:16:03.560Z,0
2018-03-01T03:17:04.121Z,0
2018-03-01T03:18:04.680Z,0
2018-03-01T03:19:05.243Z,0
2018-03-01T03:20:05.806Z,0
2018-03-01T03:21:06.368Z,0
2018-03-01T03:22:06.929Z,0
2018-03-01T03:23:07.491Z,0
2018-03-01T03:24:08.055Z,0
2018-03-01T03:25:08.631Z,0
2018-03-01T03:26:09.193Z,0
2018-03-01T03:27:09.762Z,0
2018-03-01T03:28:10.332Z,0
2018-03-01T03:29:10.893Z,0
2018-03-01T03:30:11.456Z,0
2018-03-01T03:31:12.020Z,0
2018-03-01T03:32:12.580Z,0
2018-03-01T03:33:13.142Z,0
2018-03-01T03:34:13.704Z,0
2018-03-01T03:35:14.264Z,0
2018-03-01T03:36:14.827Z,0
2018-03-01T03:37:15.392Z,0
2018-03-01T03:38:15.950Z,0
2018-03-01T03:39:16.526Z,0
2018-03-01T03:40:17.088Z,0
2018-03-01T03:41:17.649Z,0
2018-03-01T03:42:18.210Z,0
2018-03-01T03:43:18.772Z,0
2018-03-01T03:44:19.334Z,0
2018-03-01T03:45:19.895Z,0
2018-03-01T03:46:20.455Z,0
2018-03-01T03:47:21.019Z,0
2018-03-01T03:48:21.578Z,0
2018-03-01T03:49:22.141Z,0
2018-03-01T03:50:22.702Z,0
2018-03-01T03:51:23.265Z,0
2018-03-01T03:52:23.838Z,0
2018-03-01T03:53:24.400Z,0
2018-03-01T03:54:24.962Z,0
2018-03-01T03:55:25.524Z,0
2018-03-01T03:56:26.087Z,0
2018-03-01T03:57:26.649Z,0
2018-03-01T03:58:27.212Z,0
2018-03-01T03:59:27.776Z,0
2018-03-01T04:00:28.338Z,0
2018-03-01T04:01:28.898Z,0
2018-03-01T04:02:29.460Z,0
2018-03-01T04:03:30.022Z,0
2018-03-01T04:04:30.584Z,0
2018-03-01T04:05:31.146Z,0
2018-03-01T04:06:31.707Z,0
2018-03-01T04:07:32.268Z,0
2018-03-01T04:08:32.830Z,0
2018-03-01T04:09:33.391Z,0
2018-03-01T04:10:33.953Z,0
2018-03-01T04:11:34.514Z,0
2018-03-01T04:12:35.074Z,0
2018-03-01T04:13:35.636Z,0
2018-03-01T04:14:36.196Z,0
2018-03-01T04:15:36.759Z,0
2018-03-01T04:16:37.321Z,0
2018-03-01T04:17:37.898Z,0
2018-03-01T04:18:38.460Z,0
2018-03-01T04:19:39.021Z,0
2018-03-01T04:20:39.582Z,0
2018-03-01T04:21:40.144Z,0
2018-03-01T04:22:40.706Z,0
2018-03-01T04:23:41.267Z,0
2018-03-01T04:24:41.842Z,0
2018-03-01T04:25:42.403Z,0
2018-03-01T04:26:42.966Z,0
2018-03-01T04:27:43.539Z,0
2018-03-01T04:28:44.098Z,0
2018-03-01T04:29:44.660Z,0
2018-03-01T04:30:45.223Z,0
2018-03-01T04:31:45.785Z,0
2018-03-01T04:32:46.348Z,0
2018-03-01T04:33:46.908Z,0
2018-03-01T04:34:47.470Z,0
2018-03-01T04:35:48.032Z,0
2018-03-01T04:36:48.595Z,0
2018-03-01T04:37:49.169Z,0
2018-03-01T04:38:49.732Z,0
2018-03-01T04:39:50.293Z,0
2018-03-01T04:40:50.853Z,0
2018-03-01T04:41:51.417Z,0
2018-03-01T04:42:51.989Z,0
2018-03-01T04:43:52.550Z,0
2018-03-01T04:44:53.112Z,0
2018-03-01T04:45:53.674Z,0
2018-03-01T04:46:54.237Z,0
2018-03-01T04:47:54.800Z,0
2018-03-01T04:48:55.360Z,0
2018-03-01T04:49:55.923Z,0
2018-03-01T04:50:56.487Z,0
2018-03-01T04:51:57.047Z,0
2018-03-01T04:52:57.612Z,0
2018-03-01T04:53:58.184Z,0
2018-03-01T04:54:58.746Z,0
2018-03-01T04:55:59.307Z,0
2018-03-01T04:56:59.869Z,0
2018-03-01T04:58:00.433Z,0
2018-03-01T04:59:00.994Z,0
2018-03-01T05:00:01.557Z,0
2018-03-01T05:01:02.120Z,0
2018-03-01T05:02:02.700Z,0
2018-03-01T05:03:03.264Z,0
2018-03-01T05:04:03.892Z,0
2018-03-01T05:05:04.399Z,0
2018-03-01T05:06:04.959Z,0
2018-03-01T05:07:05.519Z,0
2018-03-01T05:08:06.080Z,0
2018-03-01T05:09:06.642Z,0
2018-03-01T05:10:07.205Z,0
2018-03-01T05:11:07.767Z,0
2018-03-01T05:12:08.328Z,0
2018-03-01T05:13:08.890Z,0
2018-03-01T05:14:09.452Z,0
2018-03-01T05:15:10.018Z,0
2018-03-01T05:16:10.581Z,0
2018-03-01T05:17:11.140Z,0
2018-03-01T05:18:11.703Z,0
2018-03-01T05:19:12.265Z,0
2018-03-01T05:20:12.831Z,0
2018-03-01T05:21:13.404Z,0
2018-03-01T05:22:13.965Z,0
2018-03-01T05:23:14.526Z,0
2018-03-01T05:24:15.089Z,0
2018-03-01T05:25:15.651Z,0
2018-03-01T05:26:16.213Z,0
2018-03-01T05:27:16.775Z,0
2018-03-01T05:28:17.349Z,0
2018-03-01T05:29:17.911Z,0
2018-03-01T05:30:18.472Z,0
2018-03-01T05:31:19.087Z,0
2018-03-01T05:32:19.598Z,0
2018-03-01T05:33:20.162Z,0
2018-03-01T05:34:20.720Z,0
2018-03-01T05:35:21.280Z,0
2018-03-01T05:36:21.856Z,0
2018-03-01T05:37:22.432Z,0
2018-03-01T05:38:22.992Z,0
2018-03-01T05:39:23.552Z,0
2018-03-01T05:40:24.115Z,0
2018-03-01T05:41:24.677Z,0
2018-03-01T05:42:25.238Z,0
2018-03-01T05:43:25.800Z,0
2018-03-01T05:44:26.361Z,0
2018-03-01T05:45:26.924Z,0
2018-03-01T05:46:27.491Z,0
2018-03-01T05:47:28.049Z,0
2018-03-01T05:48:28.624Z,0
2018-03-01T05:49:29.187Z,0
2018-03-01T05:50:29.749Z,0
2018-03-01T05:51:30.311Z,0
2018-03-01T05:52:30.875Z,0
2018-03-01T05:53:31.436Z,0
2018-03-01T05:54:31.998Z,0
2018-03-01T05:55:32.560Z,0
2018-03-01T05:56:33.121Z,0
2018-03-01T05:57:33.684Z,0
2018-03-01T05:58:34.245Z,0
2018-03-01T05:59:34.807Z,0
2018-03-01T06:00:35.382Z,0
2018-03-01T06:01:35.943Z,0
2018-03-01T06:02:36.534Z,0
2018-03-01T06:03:37.072Z,0
2018-03-01T06:04:37.629Z,0
2018-03-01T06:05:38.209Z,0
2018-03-01T06:06:38.768Z,0
2018-03-01T06:07:39.329Z,0
2018-03-01T06:08:39.892Z,0
2018-03-01T06:09:40.454Z,0
2018-03-01T06:10:41.017Z,0
2018-03-01T06:11:41.580Z,0
2018-03-01T06:12:42.140Z,0
2018-03-01T06:13:42.700Z,0
2018-03-01T06:14:43.263Z,0
2018-03-01T06:15:43.826Z,0
2018-03-01T06:16:44.389Z,0
2018-03-01T06:17:44.951Z,0
2018-03-01T06:18:45.514Z,0
2018-03-01T06:19:46.078Z,0
2018-03-01T06:20:46.640Z,0
2018-03-01T06:21:47.204Z,0
2018-03-01T06:22:47.762Z,0
2018-03-01T06:23:48.326Z,0
2018-03-01T06:24:48.891Z,0
2018-03-01T06:25:49.453Z,0
2018-03-01T06:26:50.285Z,0
2018-03-01T06:27:50.579Z,0
2018-03-01T06:28:51.146Z,0
2018-03-01T06:29:51.705Z,0
2018-03-01T06:30:52.268Z,0
2018-03-01T06:31:52.831Z,0
2018-03-01T06:32:53.396Z,0
2018-03-01T06:33:53.957Z,0
2018-03-01T06:34:54.521Z,0
2018-03-01T06:35:55.085Z,0
2018-03-01T06:36:55.648Z,0
2018-03-01T06:37:56.210Z,0
2018-03-01T06:38:56.774Z,0
2018-03-01T06:39:57.337Z,0
2018-03-01T06:40:57.908Z,0
2018-03-01T06:41:58.475Z,0
2018-03-01T06:42:59.035Z,0
2018-03-01T06:43:59.604Z,0
2018-03-01T06:45:00.159Z,0
2018-03-01T06:46:00.723Z,0
2018-03-01T06:47:01.286Z,0
2018-03-01T06:48:01.864Z,0
2018-03-01T06:49:02.475Z,0
2018-03-01T06:50:02.988Z,0
2018-03-01T06:51:03.551Z,0
2018-03-01T06:52:04.113Z,0
2018-03-01T06:53:04.676Z,0
2018-03-01T06:54:05.239Z,0
2018-03-01T06:55:05.816Z,0
2018-03-01T06:56:06.379Z,0
2018-03-01T06:57:06.945Z,0
2018-03-01T06:58:07.508Z,0
2018-03-01T06:59:08.072Z,0
2018-03-01T07:00:08.646Z,0
2018-03-01T07:01:09.207Z,0
2018-03-01T07:02:09.772Z,0
2018-03-01T07:03:10.348Z,0
2018-03-01T07:04:10.914Z,0
2018-03-01T07:05:11.498Z,0
2018-03-01T07:06:12.057Z,5
2018-03-01T07:07:12.620Z,5
2018-03-01T07:08:13.186Z,5
2018-03-01T07:09:13.765Z,5
2018-03-01T07:10:14.328Z,5
2018-03-01T07:11:14.932Z,5
2018-03-01T07:12:15.457Z,5
2018-03-01T07:13:16.019Z,5
2018-03-01T07:14:16.583Z,5
2018-03-01T07:15:17.145Z,5
2018-03-01T07:16:17.709Z,5
2018-03-01T07:17:18.276Z,5
2018-03-01T07:18:18.839Z,5
2018-03-01T07:19:19.418Z,5
2018-03-01T07:20:19.982Z,5
2018-03-01T07:21:20.549Z,5
2018-03-01T07:22:21.113Z,5
2018-03-01T07:23:21.677Z,5
2018-03-01T07:24:22.243Z,5
2018-03-01T07:25:22.806Z,5
2018-03-01T07:26:23.370Z,5
2018-03-01T07:27:23.937Z,5
2018-03-01T07:28:24.500Z,5
2018-03-01T07:29:25.067Z,10
2018-03-01T07:30:25.636Z,10
2018-03-01T07:31:26.218Z,10
2018-03-01T07:32:26.789Z,5
2018-03-01T07:33:27.352Z,5
2018-03-01T07:34:27.918Z,5
2018-03-01T07:35:28.497Z,10
2018-03-01T07:36:29.064Z,10
2018-03-01T07:37:29.645Z,10
2018-03-01T07:38:30.209Z,10
2018-03-01T07:39:30.774Z,10
2018-03-01T07:40:31.339Z,10
2018-03-01T07:41:31.903Z,10
2018-03-01T07:42:32.481Z,10
2018-03-01T07:43:33.047Z,15
2018-03-01T07:44:33.612Z,15
2018-03-01T07:45:34.182Z,15
2018-03-01T07:46:34.743Z,15
2018-03-01T07:47:35.309Z,15
2018-03-01T07:48:35.875Z,15
2018-03-01T07:49:36.440Z,15
2018-03-01T07:50:37.004Z,15
2018-03-01T07:51:37.571Z,15
2018-03-01T07:52:38.135Z,15
2018-03-01T07:53:38.700Z,15
2018-03-01T07:54:39.265Z,15
2018-03-01T07:55:39.830Z,15
2018-03-01T07:56:40.394Z,15
2018-03-01T07:57:40.960Z,15
2018-03-01T07:58:41.525Z,15
2018-03-01T07:59:42.089Z,15
2018-03-01T08:00:42.667Z,15
2018-03-01T08:01:43.232Z,15
2018-03-01T08:02:43.798Z,15
2018-03-01T08:03:44.362Z,15
2018-03-01T08:04:44.927Z,15
2018-03-01T08:05:45.493Z,15
2018-03-01T08:06:46.059Z,15
2018-03-01T08:07:46.637Z,15
2018-03-01T08:08:47.216Z,15
2018-03-01T08:09:47.782Z,15
2018-03-01T08:10:48.352Z,15
2018-03-01T08:11:48.912Z,15
2018-03-01T08:12:49.478Z,15
2018-03-01T08:13:50.044Z,15
2018-03-01T08:14:50.608Z,15
2018-03-01T08:15:51.189Z,15
2018-03-01T08:16:51.754Z,15
2018-03-01T08:17:52.367Z,15
2018-03-01T08:18:52.885Z,15
2018-03-01T08:19:53.451Z,15
2018-03-01T08:20:54.034Z,15
2018-03-01T08:21:54.599Z,15
2018-03-01T08:22:55.163Z,15
2018-03-01T08:23:55.729Z,15
2018-03-01T08:24:56.295Z,15
2018-03-01T08:25:56.874Z,15
2018-03-01T08:26:57.439Z,15
2018-03-01T08:27:58.007Z,15
2018-03-01T08:28:58.572Z,15
2018-03-01T08:29:59.139Z,15
2018-03-01T08:30:59.704Z,15
2018-03-01T08:32:00.289Z,15
2018-03-01T08:33:00.862Z,15
2018-03-01T08:34:01.427Z,15
2018-03-01T08:35:01.995Z,15
2018-03-01T08:36:02.560Z,15
2018-03-01T08:37:03.139Z,15
2018-03-01T08:38:03.706Z,15
2018-03-01T08:39:04.273Z,15
2018-03-01T08:40:04.841Z,15
2018-03-01T08:41:05.405Z,15
2018-03-01T08:42:05.985Z,15
2018-03-01T08:43:06.602Z,15
2018-03-01T08:44:07.168Z,20
2018-03-01T08:45:07.736Z,15
2018-03-01T08:46:08.301Z,15
2018-03-01T08:47:08.866Z,20
2018-03-01T08:48:09.449Z,20
2018-03-01T08:49:10.014Z,20
2018-03-01T08:50:10.606Z,20
2018-03-01T08:51:11.146Z,20
2018-03-01T08:52:11.712Z,20
2018-03-01T08:53:12.296Z,20
2018-03-01T08:54:12.859Z,15
2018-03-01T08:55:13.425Z,20
2018-03-01T08:56:13.996Z,15
2018-03-01T08:57:14.559Z,20
2018-03-01T08:58:15.125Z,15
2018-03-01T08:59:15.691Z,15
2018-03-01T09:00:16.259Z,15
2018-03-01T09:01:16.840Z,15
2018-03-01T09:02:17.405Z,20
2018-03-01T09:03:17.973Z,20
2018-03-01T09:04:18.539Z,20
2018-03-01T09:05:19.104Z,20
2018-03-01T09:06:19.670Z,20
2018-03-01T09:07:20.237Z,20
2018-03-01T09:08:20.809Z,20
2018-03-01T09:09:21.383Z,20
2018-03-01T09:10:21.949Z,20
2018-03-01T09:11:22.517Z,20
2018-03-01T09:12:23.097Z,20
2018-03-01T09:13:23.663Z,15
2018-03-01T09:14:24.242Z,15
2018-03-01T09:15:24.807Z,15
2018-03-01T09:16:25.386Z,15
2018-03-01T09:17:25.951Z,15
2018-03-01T09:18:26.518Z,15
2018-03-01T09:19:27.128Z,20
2018-03-01T09:20:27.653Z,15
2018-03-01T09:21:28.216Z,20
2018-03-01T09:22:28.784Z,15
2018-03-01T09:23:29.350Z,20
2018-03-01T09:24:29.916Z,15
2018-03-01T09:25:30.481Z,20
2018-03-01T09:26:31.047Z,15
2018-03-01T09:27:31.614Z,20
2018-03-01T09:28:32.180Z,20
2018-03-01T09:29:32.748Z,20
2018-03-01T09:30:33.336Z,20
2018-03-01T09:31:33.880Z,20
2018-03-01T09:32:34.449Z,20
2018-03-01T09:33:35.013Z,20
2018-03-01T09:34:35.578Z,20
2018-03-01T09:35:36.158Z,20
2018-03-01T09:36:36.725Z,15
2018-03-01T09:37:37.291Z,15
2018-03-01T09:38:37.859Z,20
2018-03-01T09:39:38.427Z,15
2018-03-01T09:40:38.995Z,20
2018-03-01T09:41:39.561Z,20
2018-03-01T09:42:40.134Z,20
2018-03-01T09:43:40.696Z,20
2018-03-01T09:44:41.330Z,20
2018-03-01T09:45:41.845Z,20
2018-03-01T09:46:42.412Z,20
2018-03-01T09:47:42.981Z,20
2018-03-01T09:48:43.548Z,20
2018-03-01T09:49:44.114Z,20
2018-03-01T09:50:44.680Z,20
2018-03-01T09:51:45.261Z,20
2018-03-01T09:52:45.833Z,20
2018-03-01T09:53:46.393Z,20
2018-03-01T09:54:46.961Z,20
2018-03-01T09:55:47.527Z,20
2018-03-01T09:56:48.109Z,20
2018-03-01T09:57:48.674Z,20
2018-03-01T09:58:49.256Z,20
2018-03-01T09:59:49.821Z,20
2018-03-01T10:00:50.387Z,20
2018-03-01T10:01:50.955Z,20
2018-03-01T10:02:51.521Z,20
2018-03-01T10:03:52.093Z,20
2018-03-01T10:04:52.669Z,20
2018-03-01T10:05:53.236Z,20
2018-03-01T10:06:53.803Z,20
2018-03-01T10:07:54.369Z,20
2018-03-01T10:08:54.936Z,20
2018-03-01T10:09:55.506Z,20
2018-03-01T10:10:56.084Z,20
2018-03-01T10:11:56.652Z,20
2018-03-01T10:12:57.218Z,20
2018-03-01T10:13:57.820Z,20
2018-03-01T10:14:58.351Z,20
2018-03-01T10:15:58.918Z,20
2018-03-01T10:16:59.483Z,20
2018-03-01T10:18:00.056Z,20
2018-03-01T10:19:00.618Z,20
2018-03-01T10:20:01.187Z,20
2018-03-01T10:21:01.767Z,20
2018-03-01T10:22:02.335Z,20
2018-03-01T10:23:02.900Z,20
2018-03-01T10:24:03.468Z,20
2018-03-01T10:25:04.036Z,20
2018-03-01T10:26:04.601Z,20
2018-03-01T10:27:05.171Z,20
2018-03-01T10:28:05.738Z,20
2018-03-01T10:29:06.320Z,20
2018-03-01T10:30:06.888Z,25
2018-03-01T10:31:07.455Z,20
2018-03-01T10:32:08.022Z,25
2018-03-01T10:33:08.589Z,20
2018-03-01T10:34:09.159Z,25
2018-03-01T10:35:09.739Z,25
2018-03-01T10:36:10.305Z,25
2018-03-01T10:37:10.872Z,25
2018-03-01T10:38:11.441Z,25
2018-03-01T10:39:12.007Z,25
2018-03-01T10:40:12.573Z,25
2018-03-01T10:41:13.143Z,25
2018-03-01T10:42:13.723Z,25
2018-03-01T10:43:14.290Z,25
2018-03-01T10:44:14.857Z,25
2018-03-01T10:45:15.440Z,25
2018-03-01T10:46:16.009Z,25
2018-03-01T10:47:16.576Z,25
2018-03-01T10:48:17.143Z,25
2018-03-01T10:49:17.723Z,25
2018-03-01T10:50:18.293Z,25
2018-03-01T10:51:18.858Z,25
2018-03-01T10:52:19.440Z,25
2018-03-01T10:53:20.010Z,25
2018-03-01T10:54:20.577Z,25
2018-03-01T10:55:21.159Z,25
2018-03-01T10:56:21.726Z,25
2018-03-01T10:57:22.295Z,20
2018-03-01T10:58:22.862Z,20
2018-03-01T10:59:23.492Z,20
2018-03-01T11:00:23.997Z,25
2018-03-01T11:01:24.565Z,25
2018-03-01T11:02:25.132Z,25
2018-03-01T11:03:25.700Z,25
2018-03-01T11:04:26.266Z,25
2018-03-01T11:05:26.837Z,25
2018-03-01T11:06:27.401Z,25
2018-03-01T11:07:27.970Z,25
2018-03-01T11:08:28.537Z,25
2018-03-01T11:09:29.106Z,25
2018-03-01T11:10:29.673Z,25
2018-03-01T11:11:30.242Z,25
2018-03-01T11:12:30.810Z,25
2018-03-01T11:13:31.377Z,25
2018-03-01T11:14:31.946Z,25
2018-03-01T11:15:32.513Z,25
2018-03-01T11:16:33.081Z,25
2018-03-01T11:17:33.653Z,25
2018-03-01T11:18:34.233Z,25
2018-03-01T11:19:34.800Z,20
2018-03-01T11:20:35.368Z,25
2018-03-01T11:21:35.936Z,25
2018-03-01T11:22:36.518Z,25
2018-03-01T11:23:37.086Z,25
2018-03-01T11:24:37.655Z,25
2018-03-01T11:25:38.235Z,25
2018-03-01T11:26:38.805Z,25
2018-03-01T11:27:39.374Z,25
2018-03-01T11:28:39.953Z,25
2018-03-01T11:29:40.522Z,25
2018-03-01T11:30:41.090Z,25
2018-03-01T11:31:41.672Z,20
2018-03-01T11:32:42.237Z,20
2018-03-01T11:33:42.805Z,20
2018-03-01T11:34:43.388Z,25
2018-03-01T11:35:43.940Z,20
2018-03-01T11:36:44.517Z,25
2018-03-01T11:37:45.076Z,25
2018-03-01T11:38:45.643Z,20
2018-03-01T11:39:46.212Z,20
2018-03-01T11:40:46.792Z,25
2018-03-01T11:41:47.359Z,25
2018-03-01T11:42:47.926Z,25
2018-03-01T11:43:48.494Z,25
2018-03-01T11:44:49.063Z,25
2018-03-01T11:45:49.629Z,30
2018-03-01T11:46:50.196Z,25
2018-03-01T11:47:50.766Z,25
2018-03-01T11:48:51.348Z,25
2018-03-01T11:49:51.915Z,25
2018-03-01T11:50:52.482Z,25
2018-03-01T11:51:53.050Z,25
2018-03-01T11:52:53.617Z,25
2018-03-01T11:53:54.186Z,25
2018-03-01T11:54:54.754Z,20
2018-03-01T11:55:55.321Z,25
2018-03-01T11:56:55.890Z,20
2018-03-01T11:57:56.460Z,20
2018-03-01T11:58:57.025Z,25
2018-03-01T11:59:57.600Z,25
2018-03-01T12:00:58.176Z,25
2018-03-01T12:01:58.743Z,25
2018-03-01T12:02:59.311Z,25
2018-03-01T12:03:59.882Z,25
2018-03-01T12:05:00.461Z,25
2018-03-01T12:06:01.029Z,30
2018-03-01T12:07:01.598Z,30
2018-03-01T12:08:02.166Z,30
2018-03-01T12:09:02.735Z,30
2018-03-01T12:10:03.305Z,30
2018-03-01T12:11:03.871Z,25
2018-03-01T12:12:04.454Z,25
2018-03-01T12:13:05.022Z,20
2018-03-01T12:14:05.592Z,25
2018-03-01T12:15:06.160Z,25
2018-03-01T12:16:06.727Z,25
2018-03-01T12:17:07.300Z,20
2018-03-01T12:18:07.878Z,20
2018-03-01T12:19:08.446Z,20
2018-03-01T12:20:09.018Z,25
2018-03-01T12:21:09.588Z,25
2018-03-01T12:22:10.166Z,25
2018-03-01T12:23:10.733Z,25
2018-03-01T12:24:11.301Z,25
2018-03-01T12:25:11.872Z,25
2018-03-01T12:26:12.452Z,25
2018-03-01T12:27:13.034Z,25
2018-03-01T12:28:13.614Z,25
2018-03-01T12:29:14.171Z,25
2018-03-01T12:30:14.740Z,25
2018-03-01T12:31:15.307Z,20
2018-03-01T12:32:15.875Z,25
2018-03-01T12:33:16.446Z,25
2018-03-01T12:34:17.016Z,25
2018-03-01T12:35:17.593Z,20
2018-03-01T12:36:18.162Z,20
2018-03-01T12:37:18.744Z,25
2018-03-01T12:38:19.313Z,25
2018-03-01T12:39:19.881Z,25
2018-03-01T12:40:20.455Z,25
2018-03-01T12:41:21.032Z,25
2018-03-01T12:42:21.600Z,25
2018-03-01T12:43:22.167Z,35
2018-03-01T12:44:22.736Z,25
2018-03-01T12:45:23.304Z,25
2018-03-01T12:46:23.875Z,25
2018-03-01T12:47:24.441Z,25
2018-03-01T12:48:25.009Z,25
2018-03-01T12:49:25.592Z,25
2018-03-01T12:50:26.146Z,25
2018-03-01T12:51:26.712Z,25
2018-03-01T12:52:27.279Z,25
2018-03-01T12:53:27.847Z,25
2018-03-01T12:54:28.416Z,25
2018-03-01T12:55:28.984Z,25
2018-03-01T12:56:29.553Z,25
2018-03-01T12:57:30.122Z,25
2018-03-01T12:58:30.691Z,20
2018-03-01T12:59:31.258Z,25
2018-03-01T13:00:31.826Z,20
2018-03-01T13:01:32.394Z,20
2018-03-01T13:02:32.963Z,20
2018-03-01T13:03:33.532Z,25
2018-03-01T13:04:34.101Z,25
2018-03-01T13:05:34.668Z,25
2018-03-01T13:06:35.237Z,25
2018-03-01T13:07:35.809Z,25
2018-03-01T13:08:36.371Z,25
2018-03-01T13:09:36.940Z,30
2018-03-01T13:10:37.509Z,30
2018-03-01T13:11:38.077Z,30
2018-03-01T13:12:38.644Z,30
2018-03-01T13:13:39.215Z,30
2018-03-01T13:14:39.782Z,25
2018-03-01T13:15:40.352Z,25
2018-03-01T13:16:40.921Z,30
2018-03-01T13:17:41.489Z,30
2018-03-01T13:18:42.058Z,30
2018-03-01T13:19:42.628Z,30
2018-03-01T13:20:43.195Z,30
2018-03-01T13:21:43.766Z,25
2018-03-01T13:22:44.334Z,20
2018-03-01T13:23:44.917Z,25
2018-03-01T13:24:45.485Z,25
2018-03-01T13:25:46.067Z,20
2018-03-01T13:26:46.636Z,20
2018-03-01T13:27:47.206Z,20
2018-03-01T13:28:47.773Z,20
2018-03-01T13:29:48.342Z,20
2018-03-01T13:30:48.911Z,20
2018-03-01T13:31:49.479Z,20
2018-03-01T13:32:50.048Z,20
2018-03-01T13:33:50.615Z,20
2018-03-01T13:34:51.183Z,20
2018-03-01T13:35:51.750Z,20
2018-03-01T13:36:52.319Z,20
2018-03-01T13:37:52.890Z,20
2018-03-01T13:38:53.458Z,20
2018-03-01T13:39:54.025Z,25
2018-03-01T13:40:54.596Z,25
2018-03-01T13:41:55.176Z,25
2018-03-01T13:42:55.744Z,30
2018-03-01T13:43:56.311Z,30
2018-03-01T13:44:56.880Z,30
2018-03-01T13:45:57.448Z,30
2018-03-01T13:46:58.015Z,35
2018-03-01T13:47:58.584Z,35
2018-03-01T13:48:59.153Z,35
2018-03-01T13:49:59.725Z,35
2018-03-01T13:51:00.290Z,35
2018-03-01T13:52:00.859Z,35
2018-03-01T13:53:01.440Z,35
2018-03-01T13:54:02.012Z,35
2018-03-01T13:55:02.577Z,35
2018-03-01T13:56:03.145Z,35
2018-03-01T13:57:03.714Z,35
2018-03-01T13:58:04.284Z,35
2018-03-01T13:59:04.853Z,35
2018-03-01T14:00:05.419Z,35
2018-03-01T14:01:05.989Z,35
2018-03-01T14:02:06.572Z,35
2018-03-01T14:03:07.141Z,35
2018-03-01T14:04:07.711Z,35
2018-03-01T14:05:08.284Z,35
2018-03-01T14:06:08.864Z,35
2018-03-01T14:07:09.434Z,35
2018-03-01T14:08:10.005Z,35
2018-03-01T14:09:10.576Z,35
2018-03-01T14:10:11.158Z,35
2018-03-01T14:11:11.739Z,35
2018-03-01T14:12:12.309Z,35
2018-03-01T14:13:12.876Z,35
2018-03-01T14:14:13.458Z,35
2018-03-01T14:15:14.028Z,35
2018-03-01T14:16:14.602Z,35
2018-03-01T14:17:15.168Z,35
2018-03-01T14:18:15.737Z,35
2018-03-01T14:19:16.307Z,35
2018-03-01T14:20:16.876Z,35
2018-03-01T14:21:17.446Z,35
2018-03-01T14:22:18.024Z,35
2018-03-01T14:23:18.586Z,35
2018-03-01T14:24:19.155Z,35
2018-03-01T14:25:19.726Z,35
2018-03-01T14:26:20.296Z,35
2018-03-01T14:27:20.874Z,35
2018-03-01T14:28:21.449Z,35
2018-03-01T14:29:22.016Z,35
2018-03-01T14:30:22.589Z,35
2018-03-01T14:31:23.164Z,35
2018-03-01T14:32:23.728Z,35
2018-03-01T14:33:24.299Z,35
2018-03-01T14:34:24.868Z,35
2018-03-01T14:35:25.438Z,35
2018-03-01T14:36:26.007Z,35
2018-03-01T14:37:26.580Z,35
2018-03-01T14:38:27.149Z,35
2018-03-01T14:39:27.718Z,35